Avenue, Maryland
Current Conditions -  °F | °C
As of 11:15 AM on Friday 21 Nov 2014 (Local Time) from K2W6 Reporting Station
Clear Clear  
Wind Chill: 24°   Ceiling: Unl
Heat Index: 34°   Visibility: 10mi
Dew Point:   Wind: 16mph
Humidity: 32%   Direction: 280°W
Pressure: 30.45"   Gusts: 23mph
Location:  38.26°N, 76.77°W
Report Text: K2W6 211615Z AUTO 28014G20KT 10SM CLR 01/M14 A3045 RMK AO1
Loading
Personal Weather Stations






























Interactive Weather Map New forecast layout! Learn more

10-Day Weather Forecast

Advertisements
Track Severe Weather on mobile